sensor_id;sensor_type;location;lat;lon;timestamp;temperature;humidity
32322;DHT22;61553;48.994;8.940;2024-02-14T00:00:53;0.40;99.90
32322;DHT22;61553;48.994;8.940;2024-02-14T00:03:19;0.50;99.90
32322;DHT22;61553;48.994;8.940;2024-02-14T00:05:46;0.30;99.90
32322;DHT22;61553;48.994;8.940;2024-02-14T00:08:12;0.40;99.90
32322;DHT22;61553;48.994;8.940;2024-02-14T00:10:40;0.30;99.90
32322;DHT22;61553;48.994;8.940;2024-02-14T00:13:05;0.30;99.90
32322;DHT22;61553;48.994;8.940;2024-02-14T00:15:31;0.40;99.90
32322;DHT22;61553;48.994;8.940;2024-02-14T00:17:57;0.40;99.90
32322;DHT22;61553;48.994;8.940;2024-02-14T00:20:22;0.50;99.90
32322;DHT22;61553;48.994;8.940;2024-02-14T00:22:49;0.70;99.90
32322;DHT22;61553;48.994;8.940;2024-02-14T00:25:15;0.60;99.90
32322;DHT22;61553;48.994;8.940;2024-02-14T00:27:41;1.40;99.90
32322;DHT22;61553;48.994;8.940;2024-02-14T00:30:07;1.00;99.90
32322;DHT22;61553;48.994;8.940;2024-02-14T00:32:33;1.00;99.90
32322;DHT22;61553;48.994;8.940;2024-02-14T00:34:59;1.40;99.90
32322;DHT22;61553;48.994;8.940;2024-02-14T00:37:24;1.10;99.90
32322;DHT22;61553;48.994;8.940;2024-02-14T00:39:50;1.20;99.90
32322;DHT22;61553;48.994;8.940;2024-02-14T00:42:17;1.40;99.90
32322;DHT22;61553;48.994;8.940;2024-02-14T00:44:42;1.40;99.90
32322;DHT22;61553;48.994;8.940;2024-02-14T00:47:08;1.50;99.90
32322;DHT22;61553;48.994;8.940;2024-02-14T00:49:36;1.60;99.90
32322;DHT22;61553;48.994;8.940;2024-02-14T00:52:03;1.70;99.90
32322;DHT22;61553;48.994;8.940;2024-02-14T00:54:28;1.70;99.90
32322;DHT22;61553;48.994;8.940;2024-02-14T00:56:54;1.80;99.90
32322;DHT22;61553;48.994;8.940;2024-02-14T00:59:19;1.90;99.90
32322;DHT22;61553;48.994;8.940;2024-02-14T01:01:45;2.00;99.90
32322;DHT22;61553;48.994;8.940;2024-02-14T01:04:11;2.00;99.90
32322;DHT22;61553;48.994;8.940;2024-02-14T01:06:37;2.10;99.90
32322;DHT22;61553;48.994;8.940;2024-02-14T01:09:02;2.00;99.90
32322;DHT22;61553;48.994;8.940;2024-02-14T01:11:28;2.10;99.90
32322;DHT22;61553;48.994;8.940;2024-02-14T01:13:54;2.20;99.90
32322;DHT22;61553;48.994;8.940;2024-02-14T01:16:20;2.20;99.90
32322;DHT22;61553;48.994;8.940;2024-02-14T01:18:45;2.30;99.90
32322;DHT22;61553;48.994;8.940;2024-02-14T01:21:11;2.40;99.90
32322;DHT22;61553;48.994;8.940;2024-02-14T01:23:37;2.40;99.90
32322;DHT22;61553;48.994;8.940;2024-02-14T01:26:03;2.50;99.90
32322;DHT22;61553;48.994;8.940;2024-02-14T01:28:29;2.50;99.90
32322;DHT22;61553;48.994;8.940;2024-02-14T01:30:54;2.60;99.90
32322;DHT22;61553;48.994;8.940;2024-02-14T01:33:22;2.60;99.90
32322;DHT22;61553;48.994;8.940;2024-02-14T01:35:48;2.70;99.90
32322;DHT22;61553;48.994;8.940;2024-02-14T01:38:13;2.80;99.90
32322;DHT22;61553;48.994;8.940;2024-02-14T01:40:42;2.80;99.90
32322;DHT22;61553;48.994;8.940;2024-02-14T01:43:10;2.90;99.90
32322;DHT22;61553;48.994;8.940;2024-02-14T01:45:35;2.90;99.90
32322;DHT22;61553;48.994;8.940;2024-02-14T01:48:01;2.90;99.90
32322;DHT22;61553;48.994;8.940;2024-02-14T01:50:28;3.00;99.90
32322;DHT22;61553;48.994;8.940;2024-02-14T01:52:58;3.10;99.90
32322;DHT22;61553;48.994;8.940;2024-02-14T01:55:26;3.20;99.90
32322;DHT22;61553;48.994;8.940;2024-02-14T01:57:52;3.10;99.90
32322;DHT22;61553;48.994;8.940;2024-02-14T02:00:18;3.20;99.90
32322;DHT22;61553;48.994;8.940;2024-02-14T02:02:44;3.20;99.90
32322;DHT22;61553;48.994;8.940;2024-02-14T02:05:12;3.20;99.90
32322;DHT22;61553;48.994;8.940;2024-02-14T02:07:39;3.20;99.90
32322;DHT22;61553;48.994;8.940;2024-02-14T02:10:09;3.20;99.90
32322;DHT22;61553;48.994;8.940;2024-02-14T02:12:34;3.20;99.90
32322;DHT22;61553;48.994;8.940;2024-02-14T02:15:06;3.20;99.90
32322;DHT22;61553;48.994;8.940;2024-02-14T02:17:33;3.10;99.90
32322;DHT22;61553;48.994;8.940;2024-02-14T02:20:01;3.10;99.90
32322;DHT22;61553;48.994;8.940;2024-02-14T02:22:27;3.00;99.90
32322;DHT22;61553;48.994;8.940;2024-02-14T02:24:57;2.90;99.90
32322;DHT22;61553;48.994;8.940;2024-02-14T02:27:23;3.00;99.90
32322;DHT22;61553;48.994;8.940;2024-02-14T02:29:48;2.90;99.90
32322;DHT22;61553;48.994;8.940;2024-02-14T02:32:14;3.00;99.90
32322;DHT22;61553;48.994;8.940;2024-02-14T02:34:41;3.20;99.90
32322;DHT22;61553;48.994;8.940;2024-02-14T02:37:07;3.10;99.90
32322;DHT22;61553;48.994;8.940;2024-02-14T02:39:34;3.00;99.90
32322;DHT22;61553;48.994;8.940;2024-02-14T02:42:04;3.00;99.90
32322;DHT22;61553;48.994;8.940;2024-02-14T02:44:31;3.00;99.90
32322;DHT22;61553;48.994;8.940;2024-02-14T02:46:56;3.10;99.90
32322;DHT22;61553;48.994;8.940;2024-02-14T02:49:22;3.00;99.90
32322;DHT22;61553;48.994;8.940;2024-02-14T02:51:47;2.90;99.90
32322;DHT22;61553;48.994;8.940;2024-02-14T02:54:13;2.80;99.90
32322;DHT22;61553;48.994;8.940;2024-02-14T02:56:39;2.70;99.90
32322;DHT22;61553;48.994;8.940;2024-02-14T02:59:06;2.60;99.90
32322;DHT22;61553;48.994;8.940;2024-02-14T03:01:38;2.60;99.90
32322;DHT22;61553;48.994;8.940;2024-02-14T03:04:03;2.50;99.90
32322;DHT22;61553;48.994;8.940;2024-02-14T03:06:29;2.50;99.90
32322;DHT22;61553;48.994;8.940;2024-02-14T03:08:56;2.30;99.90
32322;DHT22;61553;48.994;8.940;2024-02-14T03:11:22;2.30;99.90
32322;DHT22;61553;48.994;8.940;2024-02-14T03:13:48;2.20;99.90
32322;DHT22;61553;48.994;8.940;2024-02-14T03:16:17;2.20;99.90
32322;DHT22;61553;48.994;8.940;2024-02-14T03:18:43;2.00;99.90
32322;DHT22;61553;48.994;8.940;2024-02-14T03:21:09;2.10;99.90
32322;DHT22;61553;48.994;8.940;2024-02-14T03:23:35;1.90;99.90
32322;DHT22;61553;48.994;8.940;2024-02-14T03:26:00;1.80;99.90
32322;DHT22;61553;48.994;8.940;2024-02-14T03:28:26;1.90;99.90
32322;DHT22;61553;48.994;8.940;2024-02-14T03:30:52;1.80;99.90
32322;DHT22;61553;48.994;8.940;2024-02-14T03:33:18;1.90;99.90
32322;DHT22;61553;48.994;8.940;2024-02-14T03:35:44;2.00;99.90
32322;DHT22;61553;48.994;8.940;2024-02-14T03:38:10;2.00;99.90
32322;DHT22;61553;48.994;8.940;2024-02-14T03:40:36;2.00;99.90
32322;DHT22;61553;48.994;8.940;2024-02-14T03:43:04;2.20;99.90
32322;DHT22;61553;48.994;8.940;2024-02-14T03:45:29;2.20;99.90
32322;DHT22;61553;48.994;8.940;2024-02-14T03:47:55;2.40;99.90
32322;DHT22;61553;48.994;8.940;2024-02-14T03:50:22;2.30;99.90
32322;DHT22;61553;48.994;8.940;2024-02-14T03:52:48;2.40;99.90
32322;DHT22;61553;48.994;8.940;2024-02-14T03:55:14;2.40;99.90
32322;DHT22;61553;48.994;8.940;2024-02-14T03:57:40;2.40;99.90
32322;DHT22;61553;48.994;8.940;2024-02-14T04:00:06;2.40;99.90
32322;DHT22;61553;48.994;8.940;2024-02-14T04:02:35;2.40;99.90
32322;DHT22;61553;48.994;8.940;2024-02-14T04:05:01;2.40;99.90
32322;DHT22;61553;48.994;8.940;2024-02-14T04:07:28;2.50;99.90
32322;DHT22;61553;48.994;8.940;2024-02-14T04:09:55;2.60;99.90
32322;DHT22;61553;48.994;8.940;2024-02-14T04:12:21;2.70;99.90
32322;DHT22;61553;48.994;8.940;2024-02-14T04:14:46;2.80;99.90
32322;DHT22;61553;48.994;8.940;2024-02-14T04:17:12;3.00;99.90
32322;DHT22;61553;48.994;8.940;2024-02-14T04:19:38;3.10;99.90
32322;DHT22;61553;48.994;8.940;2024-02-14T04:22:04;3.10;99.90
32322;DHT22;61553;48.994;8.940;2024-02-14T04:24:29;3.10;99.90
32322;DHT22;61553;48.994;8.940;2024-02-14T04:26:55;3.20;99.90
32322;DHT22;61553;48.994;8.940;2024-02-14T04:29:22;3.10;99.90
32322;DHT22;61553;48.994;8.940;2024-02-14T04:31:48;3.20;99.90
32322;DHT22;61553;48.994;8.940;2024-02-14T04:34:14;3.30;99.90
32322;DHT22;61553;48.994;8.940;2024-02-14T04:36:40;3.30;99.90
32322;DHT22;61553;48.994;8.940;2024-02-14T04:39:06;3.40;99.90
32322;DHT22;61553;48.994;8.940;2024-02-14T04:41:32;3.40;99.90
32322;DHT22;61553;48.994;8.940;2024-02-14T04:44:05;3.40;99.90
32322;DHT22;61553;48.994;8.940;2024-02-14T04:46:34;3.50;99.90
32322;DHT22;61553;48.994;8.940;2024-02-14T04:49:02;3.70;99.90
32322;DHT22;61553;48.994;8.940;2024-02-14T04:51:30;3.60;99.90
32322;DHT22;61553;48.994;8.940;2024-02-14T04:53:57;3.60;99.90
32322;DHT22;61553;48.994;8.940;2024-02-14T04:56:26;3.60;99.90
32322;DHT22;61553;48.994;8.940;2024-02-14T04:58:53;3.70;99.90
32322;DHT22;61553;48.994;8.940;2024-02-14T05:01:19;3.70;99.90
32322;DHT22;61553;48.994;8.940;2024-02-14T05:03:44;3.90;99.90
32322;DHT22;61553;48.994;8.940;2024-02-14T05:06:10;3.90;99.90
32322;DHT22;61553;48.994;8.940;2024-02-14T05:08:36;4.00;99.90
32322;DHT22;61553;48.994;8.940;2024-02-14T05:11:01;4.00;99.90
32322;DHT22;61553;48.994;8.940;2024-02-14T05:13:27;4.10;99.90
32322;DHT22;61553;48.994;8.940;2024-02-14T05:15:53;4.20;99.90
32322;DHT22;61553;48.994;8.940;2024-02-14T05:18:18;4.20;99.90
32322;DHT22;61553;48.994;8.940;2024-02-14T05:20:44;4.20;99.90
32322;DHT22;61553;48.994;8.940;2024-02-14T05:23:10;4.20;99.90
32322;DHT22;61553;48.994;8.940;2024-02-14T05:25:36;4.20;99.90
32322;DHT22;61553;48.994;8.940;2024-02-14T05:28:02;4.20;99.90
32322;DHT22;61553;48.994;8.940;2024-02-14T05:30:27;4.10;99.90
32322;DHT22;61553;48.994;8.940;2024-02-14T05:32:54;4.00;99.90
32322;DHT22;61553;48.994;8.940;2024-02-14T05:35:21;3.90;99.90
32322;DHT22;61553;48.994;8.940;2024-02-14T05:37:47;3.90;99.90
32322;DHT22;61553;48.994;8.940;2024-02-14T05:40:15;3.90;99.90
32322;DHT22;61553;48.994;8.940;2024-02-14T05:42:41;3.90;99.90
32322;DHT22;61553;48.994;8.940;2024-02-14T05:45:07;3.80;99.90
32322;DHT22;61553;48.994;8.940;2024-02-14T05:47:35;3.70;99.90
32322;DHT22;61553;48.994;8.940;2024-02-14T05:50:01;3.70;99.90
32322;DHT22;61553;48.994;8.940;2024-02-14T05:52:27;3.70;99.90
32322;DHT22;61553;48.994;8.940;2024-02-14T05:54:52;3.80;99.90
32322;DHT22;61553;48.994;8.940;2024-02-14T05:57:19;3.80;99.90
32322;DHT22;61553;48.994;8.940;2024-02-14T05:59:45;3.80;99.90
32322;DHT22;61553;48.994;8.940;2024-02-14T06:02:11;3.80;99.90
32322;DHT22;61553;48.994;8.940;2024-02-14T06:04:37;3.70;99.90
32322;DHT22;61553;48.994;8.940;2024-02-14T06:07:02;3.60;99.90
32322;DHT22;61553;48.994;8.940;2024-02-14T06:09:30;3.50;99.90
32322;DHT22;61553;48.994;8.940;2024-02-14T06:11:56;3.30;99.90
32322;DHT22;61553;48.994;8.940;2024-02-14T06:14:22;3.30;99.90
32322;DHT22;61553;48.994;8.940;2024-02-14T06:16:47;3.20;99.90
32322;DHT22;61553;48.994;8.940;2024-02-14T06:19:13;3.10;99.90
32322;DHT22;61553;48.994;8.940;2024-02-14T06:21:38;3.10;99.90
32322;DHT22;61553;48.994;8.940;2024-02-14T06:24:04;3.00;99.90
32322;DHT22;61553;48.994;8.940;2024-02-14T06:26:31;3.00;99.90
32322;DHT22;61553;48.994;8.940;2024-02-14T06:28:57;3.10;99.90
32322;DHT22;61553;48.994;8.940;2024-02-14T06:31:22;3.20;99.90
32322;DHT22;61553;48.994;8.940;2024-02-14T06:33:48;3.30;99.90
32322;DHT22;61553;48.994;8.940;2024-02-14T06:36:14;3.40;99.90
32322;DHT22;61553;48.994;8.940;2024-02-14T06:38:40;3.40;99.90
32322;DHT22;61553;48.994;8.940;2024-02-14T06:41:06;3.60;99.90
32322;DHT22;61553;48.994;8.940;2024-02-14T06:43:32;3.60;99.90
32322;DHT22;61553;48.994;8.940;2024-02-14T06:45:57;3.70;99.90
32322;DHT22;61553;48.994;8.940;2024-02-14T06:48:23;3.70;99.90
32322;DHT22;61553;48.994;8.940;2024-02-14T06:50:52;3.70;99.90
32322;DHT22;61553;48.994;8.940;2024-02-14T06:53:18;3.70;99.90
32322;DHT22;61553;48.994;8.940;2024-02-14T06:55:44;3.70;99.90
32322;DHT22;61553;48.994;8.940;2024-02-14T06:58:09;3.70;99.90
32322;DHT22;61553;48.994;8.940;2024-02-14T07:00:35;3.70;99.90
32322;DHT22;61553;48.994;8.940;2024-02-14T07:03:00;3.90;99.90
32322;DHT22;61553;48.994;8.940;2024-02-14T07:05:27;4.00;99.90
32322;DHT22;61553;48.994;8.940;2024-02-14T07:07:57;4.10;99.90
32322;DHT22;61553;48.994;8.940;2024-02-14T07:10:22;4.20;99.90
32322;DHT22;61553;48.994;8.940;2024-02-14T07:12:48;4.20;99.90
32322;DHT22;61553;48.994;8.940;2024-02-14T07:15:14;4.30;99.90
32322;DHT22;61553;48.994;8.940;2024-02-14T07:17:40;4.40;99.90
32322;DHT22;61553;48.994;8.940;2024-02-14T07:20:06;4.40;99.90
32322;DHT22;61553;48.994;8.940;2024-02-14T07:22:35;4.40;99.90
32322;DHT22;61553;48.994;8.940;2024-02-14T07:25:02;4.50;99.90
32322;DHT22;61553;48.994;8.940;2024-02-14T07:27:29;4.60;99.90
32322;DHT22;61553;48.994;8.940;2024-02-14T07:29:54;4.80;99.90
32322;DHT22;61553;48.994;8.940;2024-02-14T07:32:20;4.90;99.90
32322;DHT22;61553;48.994;8.940;2024-02-14T07:34:46;5.10;99.90
32322;DHT22;61553;48.994;8.940;2024-02-14T07:37:11;5.40;99.90
32322;DHT22;61553;48.994;8.940;2024-02-14T07:39:37;5.50;99.90
32322;DHT22;61553;48.994;8.940;2024-02-14T07:42:03;5.60;99.90
32322;DHT22;61553;48.994;8.940;2024-02-14T07:44:29;5.70;99.90
32322;DHT22;61553;48.994;8.940;2024-02-14T07:46:54;5.80;99.90
32322;DHT22;61553;48.994;8.940;2024-02-14T07:49:20;5.80;99.90
32322;DHT22;61553;48.994;8.940;2024-02-14T07:51:46;5.80;99.90
32322;DHT22;61553;48.994;8.940;2024-02-14T07:54:12;5.80;99.90
32322;DHT22;61553;48.994;8.940;2024-02-14T07:56:39;5.90;99.90
32322;DHT22;61553;48.994;8.940;2024-02-14T07:59:04;5.90;99.90
32322;DHT22;61553;48.994;8.940;2024-02-14T08:01:31;5.90;99.90
32322;DHT22;61553;48.994;8.940;2024-02-14T08:03:57;6.00;99.90
32322;DHT22;61553;48.994;8.940;2024-02-14T08:06:23;6.10;99.90
32322;DHT22;61553;48.994;8.940;2024-02-14T08:08:49;6.20;99.90
32322;DHT22;61553;48.994;8.940;2024-02-14T08:11:19;6.30;99.90
32322;DHT22;61553;48.994;8.940;2024-02-14T08:13:45;6.30;99.90
32322;DHT22;61553;48.994;8.940;2024-02-14T08:16:11;6.40;99.90
32322;DHT22;61553;48.994;8.940;2024-02-14T08:18:37;6.50;99.90
32322;DHT22;61553;48.994;8.940;2024-02-14T08:21:05;6.60;99.90
32322;DHT22;61553;48.994;8.940;2024-02-14T08:23:32;6.70;99.90
32322;DHT22;61553;48.994;8.940;2024-02-14T08:25:58;6.80;99.90
32322;DHT22;61553;48.994;8.940;2024-02-14T08:28:23;6.90;99.90
32322;DHT22;61553;48.994;8.940;2024-02-14T08:30:49;6.90;99.90
32322;DHT22;61553;48.994;8.940;2024-02-14T08:33:15;6.90;99.90
32322;DHT22;61553;48.994;8.940;2024-02-14T08:35:40;6.90;99.90
32322;DHT22;61553;48.994;8.940;2024-02-14T08:38:06;7.00;99.90
32322;DHT22;61553;48.994;8.940;2024-02-14T08:40:32;7.10;99.90
32322;DHT22;61553;48.994;8.940;2024-02-14T08:42:57;7.20;99.90
32322;DHT22;61553;48.994;8.940;2024-02-14T08:45:24;7.20;99.90
32322;DHT22;61553;48.994;8.940;2024-02-14T08:47:50;7.30;99.90
32322;DHT22;61553;48.994;8.940;2024-02-14T08:50:16;7.30;99.90
32322;DHT22;61553;48.994;8.940;2024-02-14T08:52:42;7.40;99.90
32322;DHT22;61553;48.994;8.940;2024-02-14T08:55:08;7.50;99.90
32322;DHT22;61553;48.994;8.940;2024-02-14T08:57:41;7.60;99.90
32322;DHT22;61553;48.994;8.940;2024-02-14T09:00:07;7.70;99.90
32322;DHT22;61553;48.994;8.940;2024-02-14T09:02:33;7.90;99.90
32322;DHT22;61553;48.994;8.940;2024-02-14T09:05:00;7.90;99.90
32322;DHT22;61553;48.994;8.940;2024-02-14T09:07:27;8.10;99.90
32322;DHT22;61553;48.994;8.940;2024-02-14T09:09:52;8.20;99.90
32322;DHT22;61553;48.994;8.940;2024-02-14T09:12:18;8.40;99.90
32322;DHT22;61553;48.994;8.940;2024-02-14T09:14:43;8.50;99.90
32322;DHT22;61553;48.994;8.940;2024-02-14T09:17:09;8.50;99.90
32322;DHT22;61553;48.994;8.940;2024-02-14T09:19:35;8.70;99.90
32322;DHT22;61553;48.994;8.940;2024-02-14T09:22:02;8.80;99.90
32322;DHT22;61553;48.994;8.940;2024-02-14T09:24:32;8.90;99.90
32322;DHT22;61553;48.994;8.940;2024-02-14T09:26:57;9.20;99.90
32322;DHT22;61553;48.994;8.940;2024-02-14T09:29:24;9.40;99.90
32322;DHT22;61553;48.994;8.940;2024-02-14T09:31:51;9.60;99.90
32322;DHT22;61553;48.994;8.940;2024-02-14T09:34:17;9.70;99.90
32322;DHT22;61553;48.994;8.940;2024-02-14T09:36:45;9.90;99.90
32322;DHT22;61553;48.994;8.940;2024-02-14T09:39:14;10.10;99.90
32322;DHT22;61553;48.994;8.940;2024-02-14T09:41:44;10.40;99.90
32322;DHT22;61553;48.994;8.940;2024-02-14T09:44:12;10.80;99.90
32322;DHT22;61553;48.994;8.940;2024-02-14T09:46:38;11.40;99.90
32322;DHT22;61553;48.994;8.940;2024-02-14T09:49:04;12.30;99.90
32322;DHT22;61553;48.994;8.940;2024-02-14T09:51:31;12.40;99.90
32322;DHT22;61553;48.994;8.940;2024-02-14T09:53:59;12.70;99.90
32322;DHT22;61553;48.994;8.940;2024-02-14T09:56:25;12.70;99.90
32322;DHT22;61553;48.994;8.940;2024-02-14T09:58:53;13.00;99.90
32322;DHT22;61553;48.994;8.940;2024-02-14T10:01:23;13.00;99.40
32322;DHT22;61553;48.994;8.940;2024-02-14T10:03:53;13.70;98.30
32322;DHT22;61553;48.994;8.940;2024-02-14T10:06:19;14.60;95.90
32322;DHT22;61553;48.994;8.940;2024-02-14T10:08:49;15.20;93.70
32322;DHT22;61553;48.994;8.940;2024-02-14T10:11:19;15.50;91.60
32322;DHT22;61553;48.994;8.940;2024-02-14T10:13:48;15.50;91.70
32322;DHT22;61553;48.994;8.940;2024-02-14T10:16:15;15.90;90.60
32322;DHT22;61553;48.994;8.940;2024-02-14T10:18:41;15.90;88.90
32322;DHT22;61553;48.994;8.940;2024-02-14T10:21:14;16.00;89.10
32322;DHT22;61553;48.994;8.940;2024-02-14T10:23:39;16.00;87.40
32322;DHT22;61553;48.994;8.940;2024-02-14T10:26:05;16.00;86.30
32322;DHT22;61553;48.994;8.940;2024-02-14T10:28:32;16.00;85.40
32322;DHT22;61553;48.994;8.940;2024-02-14T10:30:58;15.80;86.30
32322;DHT22;61553;48.994;8.940;2024-02-14T10:33:28;16.20;85.90
32322;DHT22;61553;48.994;8.940;2024-02-14T10:35:55;16.40;85.60
32322;DHT22;61553;48.994;8.940;2024-02-14T10:38:23;16.40;84.90
32322;DHT22;61553;48.994;8.940;2024-02-14T10:40:49;17.00;82.50
32322;DHT22;61553;48.994;8.940;2024-02-14T10:43:16;16.70;82.70
32322;DHT22;61553;48.994;8.940;2024-02-14T10:45:42;16.30;85.00
32322;DHT22;61553;48.994;8.940;2024-02-14T10:48:12;16.70;84.10
32322;DHT22;61553;48.994;8.940;2024-02-14T10:50:41;16.60;83.10
32322;DHT22;61553;48.994;8.940;2024-02-14T10:53:14;16.30;85.10
32322;DHT22;61553;48.994;8.940;2024-02-14T10:55:46;16.30;85.10
32322;DHT22;61553;48.994;8.940;2024-02-14T10:58:13;16.10;86.00
32322;DHT22;61553;48.994;8.940;2024-02-14T11:00:40;15.50;87.90
32322;DHT22;61553;48.994;8.940;2024-02-14T11:03:07;15.00;89.60
32322;DHT22;61553;48.994;8.940;2024-02-14T11:05:43;14.60;91.00
32322;DHT22;61553;48.994;8.940;2024-02-14T11:08:13;14.40;92.30
32322;DHT22;61553;48.994;8.940;2024-02-14T11:10:39;14.30;92.80
32322;DHT22;61553;48.994;8.940;2024-02-14T11:13:10;14.30;92.80
32322;DHT22;61553;48.994;8.940;2024-02-14T11:15:36;14.30;93.50
32322;DHT22;61553;48.994;8.940;2024-02-14T11:18:05;14.20;94.10
32322;DHT22;61553;48.994;8.940;2024-02-14T11:20:34;14.20;94.80
32322;DHT22;61553;48.994;8.940;2024-02-14T11:23:05;14.00;96.40
32322;DHT22;61553;48.994;8.940;2024-02-14T11:25:37;14.00;97.20
32322;DHT22;61553;48.994;8.940;2024-02-14T11:28:19;14.00;97.80
32322;DHT22;61553;48.994;8.940;2024-02-14T11:30:49;13.80;98.90
32322;DHT22;61553;48.994;8.940;2024-02-14T11:35:45;13.50;99.90
32322;DHT22;61553;48.994;8.940;2024-02-14T11:38:11;13.40;99.90
32322;DHT22;61553;48.994;8.940;2024-02-14T11:40:38;13.50;99.90
32322;DHT22;61553;48.994;8.940;2024-02-14T11:43:09;13.50;99.90
32322;DHT22;61553;48.994;8.940;2024-02-14T11:45:35;13.40;99.90
32322;DHT22;61553;48.994;8.940;2024-02-14T11:48:04;13.40;99.90
32322;DHT22;61553;48.994;8.940;2024-02-14T11:50:31;13.50;99.90
32322;DHT22;61553;48.994;8.940;2024-02-14T11:52:58;13.50;99.90
32322;DHT22;61553;48.994;8.940;2024-02-14T11:55:30;13.60;99.90
32322;DHT22;61553;48.994;8.940;2024-02-14T11:57:58;13.70;99.90
32322;DHT22;61553;48.994;8.940;2024-02-14T12:00:24;13.70;99.90
32322;DHT22;61553;48.994;8.940;2024-02-14T12:02:53;13.90;99.90
32322;DHT22;61553;48.994;8.940;2024-02-14T12:05:20;13.90;99.90
32322;DHT22;61553;48.994;8.940;2024-02-14T12:07:46;14.00;99.90
32322;DHT22;61553;48.994;8.940;2024-02-14T12:10:12;13.90;99.90
32322;DHT22;61553;48.994;8.940;2024-02-14T12:12:38;13.90;99.90
32322;DHT22;61553;48.994;8.940;2024-02-14T12:15:04;14.10;99.90
32322;DHT22;61553;48.994;8.940;2024-02-14T12:17:31;14.20;99.90
32322;DHT22;61553;48.994;8.940;2024-02-14T12:20:15;14.40;99.90
32322;DHT22;61553;48.994;8.940;2024-02-14T12:22:41;14.40;99.90
32322;DHT22;61553;48.994;8.940;2024-02-14T12:25:10;14.50;99.90
32322;DHT22;61553;48.994;8.940;2024-02-14T12:27:37;14.60;99.90
32322;DHT22;61553;48.994;8.940;2024-02-14T12:30:09;14.70;99.90
32322;DHT22;61553;48.994;8.940;2024-02-14T12:32:35;14.80;99.90
32322;DHT22;61553;48.994;8.940;2024-02-14T12:35:01;14.90;99.90
32322;DHT22;61553;48.994;8.940;2024-02-14T12:37:26;15.10;99.90
32322;DHT22;61553;48.994;8.940;2024-02-14T12:39:52;15.20;99.90
32322;DHT22;61553;48.994;8.940;2024-02-14T12:42:19;15.10;99.90
32322;DHT22;61553;48.994;8.940;2024-02-14T12:44:59;15.20;99.90
32322;DHT22;61553;48.994;8.940;2024-02-14T12:47:25;15.40;99.70
32322;DHT22;61553;48.994;8.940;2024-02-14T12:49:56;15.30;99.10
32322;DHT22;61553;48.994;8.940;2024-02-14T12:52:24;15.30;99.30
32322;DHT22;61553;48.994;8.940;2024-02-14T12:54:50;15.60;99.00
32322;DHT22;61553;48.994;8.940;2024-02-14T12:57:16;15.80;98.60
32322;DHT22;61553;48.994;8.940;2024-02-14T12:59:41;16.00;98.80
32322;DHT22;61553;48.994;8.940;2024-02-14T13:02:07;15.80;98.40
32322;DHT22;61553;48.994;8.940;2024-02-14T13:04:33;15.60;98.30
32322;DHT22;61553;48.994;8.940;2024-02-14T13:06:59;15.90;98.50
32322;DHT22;61553;48.994;8.940;2024-02-14T13:09:24;16.10;98.50
32322;DHT22;61553;48.994;8.940;2024-02-14T13:11:50;16.00;98.10
32322;DHT22;61553;48.994;8.940;2024-02-14T13:14:17;16.00;97.80
32322;DHT22;61553;48.994;8.940;2024-02-14T13:16:42;16.00;97.80
32322;DHT22;61553;48.994;8.940;2024-02-14T13:19:08;15.80;98.30
32322;DHT22;61553;48.994;8.940;2024-02-14T13:21:34;15.70;98.60
32322;DHT22;61553;48.994;8.940;2024-02-14T13:23:59;15.60;99.00
32322;DHT22;61553;48.994;8.940;2024-02-14T13:26:25;15.40;99.50
32322;DHT22;61553;48.994;8.940;2024-02-14T13:28:51;15.40;99.60
32322;DHT22;61553;48.994;8.940;2024-02-14T13:31:16;15.30;99.60
32322;DHT22;61553;48.994;8.940;2024-02-14T13:33:42;15.30;99.60
32322;DHT22;61553;48.994;8.940;2024-02-14T13:36:08;15.20;99.90
32322;DHT22;61553;48.994;8.940;2024-02-14T13:38:33;15.10;99.90
32322;DHT22;61553;48.994;8.940;2024-02-14T13:40:59;15.20;99.90
32322;DHT22;61553;48.994;8.940;2024-02-14T13:43:25;15.00;99.90
32322;DHT22;61553;48.994;8.940;2024-02-14T13:45:50;14.80;99.90
32322;DHT22;61553;48.994;8.940;2024-02-14T13:48:16;14.60;99.90
32322;DHT22;61553;48.994;8.940;2024-02-14T13:50:42;14.50;99.90
32322;DHT22;61553;48.994;8.940;2024-02-14T13:53:08;14.40;99.90
32322;DHT22;61553;48.994;8.940;2024-02-14T13:55:34;14.20;99.90
32322;DHT22;61553;48.994;8.940;2024-02-14T13:58:01;14.00;99.90
32322;DHT22;61553;48.994;8.940;2024-02-14T14:00:26;14.00;99.90
32322;DHT22;61553;48.994;8.940;2024-02-14T14:02:52;13.80;99.90
32322;DHT22;61553;48.994;8.940;2024-02-14T14:05:19;13.80;99.90
32322;DHT22;61553;48.994;8.940;2024-02-14T14:07:46;13.80;99.90
32322;DHT22;61553;48.994;8.940;2024-02-14T14:10:12;13.90;99.90
32322;DHT22;61553;48.994;8.940;2024-02-14T14:12:37;13.80;99.90
32322;DHT22;61553;48.994;8.940;2024-02-14T14:15:04;13.80;99.90
32322;DHT22;61553;48.994;8.940;2024-02-14T14:17:30;13.80;99.90
32322;DHT22;61553;48.994;8.940;2024-02-14T14:19:56;13.90;99.90
32322;DHT22;61553;48.994;8.940;2024-02-14T14:22:21;13.90;99.90
32322;DHT22;61553;48.994;8.940;2024-02-14T14:24:47;14.00;99.90
32322;DHT22;61553;48.994;8.940;2024-02-14T14:27:13;13.90;99.90
32322;DHT22;61553;48.994;8.940;2024-02-14T14:29:43;13.80;99.90
32322;DHT22;61553;48.994;8.940;2024-02-14T14:32:12;13.70;99.90
32322;DHT22;61553;48.994;8.940;2024-02-14T14:34:37;13.70;99.90
32322;DHT22;61553;48.994;8.940;2024-02-14T14:37:03;13.70;99.90
32322;DHT22;61553;48.994;8.940;2024-02-14T14:39:29;13.70;99.90
32322;DHT22;61553;48.994;8.940;2024-02-14T14:41:56;13.70;99.90
32322;DHT22;61553;48.994;8.940;2024-02-14T14:44:26;13.60;99.90
32322;DHT22;61553;48.994;8.940;2024-02-14T14:46:53;13.70;99.90
32322;DHT22;61553;48.994;8.940;2024-02-14T14:49:19;13.60;99.90
32322;DHT22;61553;48.994;8.940;2024-02-14T14:51:45;13.60;99.90
32322;DHT22;61553;48.994;8.940;2024-02-14T14:54:10;13.70;99.90
32322;DHT22;61553;48.994;8.940;2024-02-14T14:56:36;13.70;99.90
32322;DHT22;61553;48.994;8.940;2024-02-14T14:59:02;13.70;99.90
32322;DHT22;61553;48.994;8.940;2024-02-14T15:01:32;13.80;99.90
32322;DHT22;61553;48.994;8.940;2024-02-14T15:03:59;13.80;99.90
32322;DHT22;61553;48.994;8.940;2024-02-14T15:06:25;13.90;99.90
32322;DHT22;61553;48.994;8.940;2024-02-14T15:08:51;13.80;99.90
32322;DHT22;61553;48.994;8.940;2024-02-14T15:11:17;13.80;99.90
32322;DHT22;61553;48.994;8.940;2024-02-14T15:13:44;13.80;99.90
32322;DHT22;61553;48.994;8.940;2024-02-14T15:16:11;13.80;99.90
32322;DHT22;61553;48.994;8.940;2024-02-14T15:18:39;13.80;99.90
32322;DHT22;61553;48.994;8.940;2024-02-14T15:21:06;13.90;99.90
32322;DHT22;61553;48.994;8.940;2024-02-14T15:23:32;13.80;99.90
32322;DHT22;61553;48.994;8.940;2024-02-14T15:25:58;13.90;99.90
32322;DHT22;61553;48.994;8.940;2024-02-14T15:28:32;13.90;99.90
32322;DHT22;61553;48.994;8.940;2024-02-14T15:31:08;13.90;99.90
32322;DHT22;61553;48.994;8.940;2024-02-14T15:33:53;13.90;99.90
32322;DHT22;61553;48.994;8.940;2024-02-14T15:36:21;13.90;99.90
32322;DHT22;61553;48.994;8.940;2024-02-14T15:38:46;13.80;99.90